createdAt,value
2017-11-14T00:03:36.161Z,85.56
2017-11-14T00:06:09.678Z,85.53
2017-11-14T00:08:44.657Z,85.52
2017-11-14T00:11:20.139Z,85.43
2017-11-14T00:13:52.053Z,85.33
2017-11-14T00:16:26.184Z,85.29
2017-11-14T00:18:57.604Z,85.21
2017-11-14T00:21:29.001Z,85.15
2017-11-14T00:24:00.821Z,85.06
2017-11-14T00:26:32.538Z,84.98
2017-11-14T00:29:07.363Z,84.93
2017-11-14T00:31:39.730Z,84.92
2017-11-14T00:34:12.929Z,84.88
2017-11-14T00:36:45.966Z,84.83
2017-11-14T00:39:20.689Z,84.58
2017-11-14T00:41:52.145Z,84.34
2017-11-14T00:44:24.077Z,84.08
2017-11-14T00:46:55.489Z,83.89
2017-11-14T00:49:26.909Z,83.63
2017-11-14T00:52:00.089Z,83.58
2017-11-14T00:54:31.656Z,83.40
2017-11-14T00:57:05.025Z,83.18
2017-11-14T00:59:36.802Z,82.78
2017-11-14T01:02:08.778Z,82.40
2017-11-14T01:04:40.157Z,82.00
2017-11-14T01:07:11.781Z,81.63
2017-11-14T01:09:43.598Z,81.30
2017-11-14T01:12:15.750Z,81.02
2017-11-14T01:14:47.327Z,80.68
2017-11-14T01:17:20.821Z,80.33
2017-11-14T01:19:52.222Z,79.98
2017-11-14T01:22:26.397Z,79.75
2017-11-14T01:24:57.879Z,79.48
2017-11-14T01:27:29.802Z,79.38
2017-11-14T01:33:16.944Z,79.22
2017-11-14T01:35:49.672Z,79.06
2017-11-14T01:38:24.715Z,78.95
2017-11-14T01:40:56.509Z,78.88
2017-11-14T01:43:31.166Z,78.76
2017-11-14T01:46:05.607Z,78.64
2017-11-14T01:48:37.903Z,78.56
2017-11-14T01:51:13.095Z,78.48
2017-11-14T01:53:46.201Z,78.48
2017-11-14T01:56:19.882Z,78.16
2017-11-14T01:58:51.278Z,78.05
2017-11-14T02:01:24.110Z,77.96
2017-11-14T02:03:57.369Z,77.65
2017-11-14T02:06:32.940Z,77.58
2017-11-14T02:09:07.117Z,77.43
2017-11-14T02:11:41.153Z,77.39
2017-11-14T02:14:19.211Z,77.64
2017-11-14T02:16:54.182Z,77.90
2017-11-14T02:19:29.799Z,78.11
2017-11-14T02:25:08.129Z,78.24
2017-11-14T02:27:40.215Z,78.57
2017-11-14T02:30:15.036Z,78.59
2017-11-14T02:32:46.572Z,78.54
2017-11-14T02:35:18.514Z,78.44
2017-11-14T02:40:23.642Z,78.58
2017-11-14T02:42:55.277Z,78.47
2017-11-14T02:45:26.658Z,78.44
2017-11-14T02:47:58.224Z,78.50
2017-11-14T02:50:31.581Z,78.56
2017-11-14T02:53:03.198Z,78.62
2017-11-14T02:55:34.896Z,78.69
2017-11-14T02:58:07.483Z,78.83
2017-11-14T03:00:39.265Z,79.17
2017-11-14T03:03:10.589Z,79.35
2017-11-14T03:05:42.181Z,79.75
2017-11-14T03:08:13.476Z,80.07
2017-11-14T03:10:44.805Z,80.29
2017-11-14T03:13:16.418Z,80.49
2017-11-14T03:15:47.765Z,80.68
2017-11-14T03:18:19.138Z,80.82
2017-11-14T03:20:50.790Z,81.05
2017-11-14T03:23:22.327Z,81.17
2017-11-14T03:25:53.981Z,81.37
2017-11-14T03:28:25.720Z,81.58
2017-11-14T03:30:57.046Z,81.69
2017-11-14T03:33:29.171Z,81.78
2017-11-14T03:36:00.758Z,81.90
2017-11-14T03:38:33.817Z,82.02
2017-11-14T03:41:05.450Z,82.18
2017-11-14T03:43:37.085Z,82.42
2017-11-14T03:46:08.425Z,82.54
2017-11-14T03:48:39.800Z,82.57
2017-11-14T03:51:11.197Z,82.66
2017-11-14T03:53:42.495Z,82.67
2017-11-14T03:56:14.439Z,82.66
2017-11-14T03:58:45.742Z,82.54
2017-11-14T04:01:17.026Z,82.23
2017-11-14T04:03:48.657Z,82.04
2017-11-14T04:06:20.051Z,81.86
2017-11-14T04:08:51.386Z,81.81
2017-11-14T04:11:22.997Z,81.75
2017-11-14T04:13:54.293Z,81.70
2017-11-14T04:16:27.353Z,81.52
2017-11-14T04:18:58.998Z,81.60
2017-11-14T04:21:31.291Z,81.69
2017-11-14T04:24:03.679Z,81.70
2017-11-14T04:26:35.602Z,81.65
2017-11-14T04:29:06.964Z,81.50
2017-11-14T04:31:38.401Z,81.69
2017-11-14T04:34:10.023Z,81.93
2017-11-14T04:36:41.343Z,81.98
2017-11-14T04:39:12.905Z,82.03
2017-11-14T04:41:44.513Z,81.93
2017-11-14T04:44:15.794Z,81.96
2017-11-14T04:46:47.149Z,81.79
2017-11-14T04:49:18.787Z,81.65
2017-11-14T04:51:50.106Z,81.87
2017-11-14T04:54:21.622Z,82.01
2017-11-14T04:56:53.531Z,81.91
2017-11-14T04:59:25.129Z,82.00
2017-11-14T05:01:56.431Z,82.00
2017-11-14T05:04:29.207Z,81.77
2017-11-14T05:07:00.630Z,81.79
2017-11-14T05:09:33.389Z,81.64
2017-11-14T05:12:05.727Z,81.44
2017-11-14T05:14:37.164Z,81.21
2017-11-14T05:17:08.492Z,81.16
2017-11-14T05:19:40.494Z,81.23
2017-11-14T05:22:11.927Z,81.19
2017-11-14T05:24:43.513Z,81.11
2017-11-14T05:27:15.175Z,80.93
2017-11-14T05:29:46.459Z,80.75
2017-11-14T05:32:18.023Z,80.63
2017-11-14T05:34:49.321Z,80.53
2017-11-14T05:37:21.967Z,80.23
2017-11-14T05:39:53.398Z,80.16
2017-11-14T05:42:25.606Z,80.12
2017-11-14T05:44:57.403Z,80.02
2017-11-14T05:47:28.760Z,79.97
2017-11-14T05:50:00.651Z,79.83
2017-11-14T05:52:32.232Z,79.80
2017-11-14T05:55:04.418Z,79.84
2017-11-14T05:57:37.084Z,79.83
2017-11-14T06:00:08.429Z,80.02
2017-11-14T06:02:40.818Z,80.05
2017-11-14T06:05:12.163Z,80.01
2017-11-14T06:07:43.504Z,79.94
2017-11-14T06:10:15.238Z,79.86
2017-11-14T06:12:47.062Z,79.67
2017-11-14T06:15:18.444Z,79.84
2017-11-14T06:17:50.116Z,79.92
2017-11-14T06:20:21.545Z,79.81
2017-11-14T06:22:52.918Z,79.81
2017-11-14T06:25:24.586Z,79.63
2017-11-14T06:27:56.291Z,79.58
2017-11-14T06:30:27.857Z,79.50
2017-11-14T06:32:59.156Z,79.36
2017-11-14T06:35:31.743Z,79.21
2017-11-14T06:38:05.261Z,78.98
2017-11-14T06:40:36.613Z,79.44
2017-11-14T06:43:08.263Z,79.64
2017-11-14T06:45:39.605Z,79.70
2017-11-14T06:48:10.910Z,79.65
2017-11-14T06:50:42.498Z,79.53
2017-11-14T06:53:13.797Z,79.29
2017-11-14T06:55:45.103Z,79.00
2017-11-14T06:58:17.235Z,79.05
2017-11-14T07:00:48.573Z,79.14
2017-11-14T07:03:20.648Z,79.24
2017-11-14T07:05:52.220Z,79.22
2017-11-14T07:08:25.050Z,79.07
2017-11-14T07:10:56.958Z,78.76
2017-11-14T07:13:28.585Z,78.52
2017-11-14T07:15:59.911Z,78.38
2017-11-14T07:18:43.395Z,78.24
2017-11-14T07:21:14.822Z,77.85
2017-11-14T07:23:46.679Z,77.46
2017-11-14T07:26:17.979Z,77.30
2017-11-14T07:28:49.630Z,77.26
2017-11-14T07:31:21.594Z,77.16
2017-11-14T07:33:53.420Z,77.11
2017-11-14T07:36:25.131Z,76.96
2017-11-14T07:38:57.501Z,76.84
2017-11-14T07:41:28.821Z,76.71
2017-11-14T07:44:04.063Z,76.42
2017-11-14T07:46:35.988Z,76.28
2017-11-14T07:49:07.628Z,76.06
2017-11-14T07:51:39.090Z,75.55
2017-11-14T07:54:10.998Z,75.17
2017-11-14T07:56:42.467Z,74.91
2017-11-14T07:59:14.086Z,74.71
2017-11-14T08:01:45.768Z,74.17
2017-11-14T08:07:23.052Z,72.52
2017-11-14T08:09:55.129Z,72.12
2017-11-14T08:12:26.771Z,71.93
2017-11-14T08:14:58.441Z,71.88
2017-11-14T08:17:29.996Z,71.99
2017-11-14T08:20:05.116Z,72.07
2017-11-14T08:22:37.554Z,72.12
2017-11-14T08:25:10.881Z,72.32
2017-11-14T08:27:43.350Z,72.51
2017-11-14T08:30:16.583Z,72.06
2017-11-14T08:32:47.948Z,71.47
2017-11-14T08:35:19.293Z,68.75
2017-11-14T08:37:51.035Z,69.03
2017-11-14T08:40:23.387Z,69.63
2017-11-14T08:42:54.729Z,69.94
2017-11-14T08:45:26.346Z,69.89
2017-11-14T08:47:58.114Z,67.21
2017-11-14T08:50:29.499Z,63.84
2017-11-14T08:53:01.602Z,59.07
2017-11-14T08:55:36.605Z,58.43
2017-11-14T08:58:18.878Z,56.37
2017-11-14T09:00:50.606Z,57.13
2017-11-14T09:03:22.022Z,56.78
2017-11-14T09:05:53.402Z,51.97
2017-11-14T09:08:25.175Z,47.63
2017-11-14T09:10:57.848Z,44.93
2017-11-14T09:13:29.510Z,42.54
2017-11-14T09:16:03.127Z,40.44
2017-11-14T09:18:36.010Z,37.78
2017-11-14T09:21:11.109Z,35.01
2017-11-14T09:23:43.691Z,33.40
2017-11-14T09:26:19.325Z,34.33
2017-11-14T09:28:52.690Z,32.78
2017-11-14T09:31:26.811Z,30.29
2017-11-14T09:33:59.242Z,29.23
2017-11-14T09:36:33.931Z,29.30
2017-11-14T09:39:07.486Z,29.00
2017-11-14T09:41:41.854Z,27.50
2017-11-14T09:44:15.495Z,26.14
2017-11-14T09:46:47.001Z,25.46
2017-11-14T09:49:20.367Z,25.15
2017-11-14T09:52:02.825Z,26.02
2017-11-14T09:54:46.264Z,27.63
2017-11-14T09:57:22.021Z,27.74
2017-11-14T09:59:53.555Z,27.04
2017-11-14T10:02:25.574Z,26.88
2017-11-14T10:05:00.347Z,27.69
2017-11-14T10:07:40.881Z,27.59
2017-11-14T10:10:28.552Z,26.52
2017-11-14T10:13:01.917Z,25.28
2017-11-14T10:15:37.003Z,23.50
2017-11-14T10:18:10.652Z,21.66
2017-11-14T10:20:46.311Z,20.73
2017-11-14T10:23:18.146Z,20.31
2017-11-14T10:25:50.310Z,20.03
2017-11-14T10:28:25.193Z,19.64
2017-11-14T10:30:58.669Z,18.42
2017-11-14T10:33:30.155Z,18.42
2017-11-14T10:36:03.458Z,17.90
2017-11-14T10:38:37.498Z,17.76
2017-11-14T10:41:13.386Z,17.10
2017-11-14T10:43:46.043Z,16.27
2017-11-14T10:46:22.502Z,15.58
2017-11-14T10:48:54.411Z,15.56
2017-11-14T10:51:27.732Z,14.91
2017-11-14T10:53:59.523Z,14.84
2017-11-14T10:56:30.915Z,14.12
2017-11-14T10:59:03.061Z,14.02
2017-11-14T11:01:34.589Z,13.52
2017-11-14T11:04:08.031Z,12.93
2017-11-14T11:06:39.735Z,12.81
2017-11-14T11:09:11.409Z,12.78
2017-11-14T11:11:43.128Z,12.61
2017-11-14T11:14:15.003Z,12.83
2017-11-14T11:16:46.685Z,12.63
2017-11-14T11:19:19.417Z,12.42
2017-11-14T11:21:50.844Z,12.44
2017-11-14T11:24:23.018Z,14.95
2017-11-14T11:26:54.781Z,17.92
2017-11-14T11:29:26.731Z,20.56
2017-11-14T11:31:58.266Z,18.54
2017-11-14T11:34:29.633Z,16.76
2017-11-14T11:37:02.812Z,19.23
2017-11-14T11:39:36.368Z,19.99
2017-11-14T11:42:08.126Z,21.44
2017-11-14T11:44:39.457Z,23.53
2017-11-14T11:47:10.829Z,26.33
2017-11-14T11:49:46.294Z,28.02
2017-11-14T11:52:18.583Z,27.75
2017-11-14T11:54:50.470Z,28.05
2017-11-14T11:57:24.658Z,28.37
2017-11-14T11:59:56.194Z,29.38
2017-11-14T12:08:21.527Z,23.26
2017-11-14T12:10:53.608Z,25.42
2017-11-14T12:13:25.532Z,24.02
2017-11-14T12:15:58.634Z,23.91
2017-11-14T12:18:33.648Z,22.91
2017-11-14T12:21:05.928Z,23.17
2017-11-14T12:23:37.649Z,22.87
2017-11-14T12:32:27.605Z,20.28
2017-11-14T12:34:59.133Z,18.96
2017-11-14T12:37:32.442Z,18.23
2017-11-14T12:40:05.185Z,18.29
2017-11-14T12:42:37.458Z,18.85
2017-11-14T12:45:08.888Z,19.10
2017-11-14T12:47:41.041Z,18.53
2017-11-14T12:50:12.713Z,18.17
2017-11-14T12:52:44.075Z,17.27
2017-11-14T12:55:15.715Z,16.31
2017-11-14T12:57:47.029Z,15.80
2017-11-14T13:00:18.351Z,15.83
2017-11-14T13:02:51.507Z,16.12
2017-11-14T13:05:22.926Z,17.18
2017-11-14T13:07:55.339Z,18.81
2017-11-14T13:10:26.803Z,21.45
2017-11-14T13:12:58.168Z,25.12
2017-11-14T13:15:29.867Z,28.20
2017-11-14T13:18:02.833Z,30.22
2017-11-14T13:20:34.972Z,31.54
2017-11-14T13:23:07.294Z,32.85
2017-11-14T13:25:38.868Z,34.29
2017-11-14T13:31:14.464Z,38.14
2017-11-14T13:33:46.793Z,39.78
2017-11-14T13:36:18.425Z,40.68
2017-11-14T13:38:50.624Z,42.09
2017-11-14T13:41:23.600Z,43.38
2017-11-14T13:43:54.969Z,44.78
2017-11-14T13:46:28.839Z,45.72
2017-11-14T13:49:01.512Z,46.33
2017-11-14T13:51:34.067Z,47.43
2017-11-14T13:54:06.371Z,48.42
2017-11-14T13:56:40.175Z,48.90
2017-11-14T13:59:11.486Z,49.38
2017-11-14T14:01:42.913Z,50.25
2017-11-14T14:04:14.623Z,51.00
2017-11-14T14:06:46.047Z,51.57
2017-11-14T14:09:18.370Z,52.09
2017-11-14T14:11:49.895Z,53.15
2017-11-14T14:14:23.197Z,53.57
2017-11-14T14:16:54.704Z,54.00
2017-11-14T14:19:27.362Z,54.20
2017-11-14T14:21:58.695Z,54.79
2017-11-14T14:24:30.251Z,55.21
2017-11-14T14:29:41.730Z,56.02
2017-11-14T14:32:13.659Z,56.63
2017-11-14T14:34:48.930Z,57.06
2017-11-14T14:37:20.641Z,57.65
2017-11-14T14:39:52.239Z,58.79
2017-11-14T14:42:25.507Z,59.22
2017-11-14T14:44:57.293Z,59.37
2017-11-14T14:47:31.782Z,60.01
2017-11-14T14:50:04.507Z,60.47
2017-11-14T14:52:36.073Z,60.93
2017-11-14T14:55:07.458Z,61.06
2017-11-14T14:57:38.795Z,61.31
2017-11-14T15:00:10.262Z,61.39
2017-11-14T15:02:41.777Z,62.18
2017-11-14T15:05:16.254Z,62.65
2017-11-14T15:10:43.051Z,62.89
2017-11-14T15:13:14.565Z,63.13
2017-11-14T15:15:46.298Z,63.32
2017-11-14T15:18:22.836Z,63.70
2017-11-14T15:20:54.231Z,64.21
2017-11-14T15:23:26.562Z,64.63
2017-11-14T15:25:59.005Z,65.35
2017-11-14T15:28:33.793Z,66.07
2017-11-14T15:31:06.711Z,66.52
2017-11-14T15:33:38.343Z,67.05
2017-11-14T15:36:13.928Z,67.17
2017-11-14T15:38:47.143Z,67.51
2017-11-14T15:41:18.665Z,67.82
2017-11-14T15:43:50.265Z,68.17
2017-11-14T15:46:27.433Z,68.22
2017-11-14T15:48:58.980Z,68.42
2017-11-14T15:51:30.775Z,68.61
2017-11-14T15:54:03.940Z,68.96
2017-11-14T15:56:35.572Z,69.29
2017-11-14T15:59:07.020Z,69.43
2017-11-14T16:01:38.390Z,69.76
2017-11-14T16:04:10.412Z,69.88
2017-11-14T16:06:45.038Z,70.03
2017-11-14T16:09:17.613Z,70.21
2017-11-14T16:14:25.162Z,70.57
2017-11-14T16:16:56.557Z,70.73
2017-11-14T16:19:29.020Z,70.81
2017-11-14T16:22:00.386Z,70.85
2017-11-14T16:24:31.774Z,70.95
2017-11-14T16:27:04.463Z,71.23
2017-11-14T16:29:40.579Z,71.25
2017-11-14T16:32:12.309Z,71.46
2017-11-14T16:34:43.742Z,71.61
2017-11-14T16:37:15.856Z,71.78
2017-11-14T16:39:47.665Z,71.83
2017-11-14T16:42:19.363Z,71.96
2017-11-14T16:44:51.765Z,72.13
2017-11-14T16:47:24.143Z,72.42
2017-11-14T16:49:56.665Z,72.81
2017-11-14T16:52:29.577Z,72.90
2017-11-14T16:55:00.940Z,73.08
2017-11-14T16:57:34.157Z,73.37
2017-11-14T17:00:07.967Z,73.53
2017-11-14T17:02:39.663Z,73.46
2017-11-14T17:08:17.860Z,73.79
2017-11-14T17:11:07.187Z,73.82
2017-11-14T17:13:38.750Z,73.96
2017-11-14T17:19:07.500Z,74.05
2017-11-14T17:21:41.554Z,74.36
2017-11-14T17:24:22.273Z,74.19
2017-11-14T17:26:55.150Z,74.55
2017-11-14T17:29:28.690Z,74.72
2017-11-14T17:32:06.099Z,74.58
2017-11-14T17:34:41.345Z,74.59
2017-11-14T17:37:13.372Z,74.70
2017-11-14T17:39:48.105Z,74.82
2017-11-14T17:45:28.884Z,74.94
2017-11-14T17:51:10.633Z,74.91
2017-11-14T17:53:44.131Z,74.64
2017-11-14T17:56:24.162Z,74.67
2017-11-14T18:02:07.456Z,74.66
2017-11-14T18:04:39.791Z,74.86
2017-11-14T18:07:15.396Z,75.13
2017-11-14T18:09:49.629Z,75.54
2017-11-14T18:12:21.666Z,75.79
2017-11-14T18:14:54.426Z,75.65
2017-11-14T18:17:28.149Z,75.76
2017-11-14T18:20:04.984Z,75.95
2017-11-14T18:22:45.459Z,75.75
2017-11-14T18:28:23.344Z,75.68
2017-11-14T18:31:58.836Z,75.77
2017-11-14T18:34:35.546Z,75.68
2017-11-14T18:40:27.137Z,75.65
2017-11-14T18:46:25.385Z,75.59
2017-11-14T18:48:59.255Z,75.44
2017-11-14T18:51:51.931Z,75.21
2017-11-14T18:54:25.930Z,74.91
2017-11-14T19:00:03.117Z,74.95
2017-11-14T19:02:38.529Z,75.20
2017-11-14T19:08:15.414Z,75.25
2017-11-14T19:10:47.108Z,75.28
2017-11-14T19:13:18.465Z,75.16
2017-11-14T19:15:50.605Z,74.84
2017-11-14T19:18:22.117Z,74.72
2017-11-14T19:20:53.487Z,74.52
2017-11-14T19:51:38.550Z,74.39
2017-11-14T19:54:11.166Z,74.05
2017-11-14T19:56:43.764Z,74.18
2017-11-14T19:59:15.176Z,74.05
2017-11-14T20:01:46.658Z,73.93
2017-11-14T20:04:18.061Z,73.90
2017-11-14T20:09:15.741Z,74.11
2017-11-14T20:11:47.152Z,74.06
2017-11-14T20:14:19.049Z,73.99
2017-11-14T20:16:51.089Z,74.08
2017-11-14T20:19:25.084Z,74.02
2017-11-14T20:21:56.503Z,74.11
2017-11-14T20:24:29.345Z,74.16
2017-11-14T20:27:02.677Z,74.14
2017-11-14T20:29:34.135Z,74.23
2017-11-14T20:32:06.483Z,74.23
2017-11-14T20:34:38.005Z,74.03
2017-11-14T20:37:10.507Z,73.99
2017-11-14T20:39:42.418Z,73.92
2017-11-14T20:42:14.227Z,73.97
2017-11-14T20:44:46.042Z,74.00
2017-11-14T20:47:17.820Z,74.12
2017-11-14T20:49:49.494Z,74.13
2017-11-14T20:52:51.555Z,74.21
2017-11-14T20:55:23.536Z,74.17
2017-11-14T20:57:56.899Z,74.13
2017-11-14T21:00:28.637Z,74.16
2017-11-14T21:03:03.933Z,74.17
2017-11-14T21:05:38.011Z,74.30
2017-11-14T21:08:10.061Z,74.24
2017-11-14T21:10:43.745Z,74.10
2017-11-14T21:13:17.959Z,73.97
2017-11-14T21:15:49.407Z,73.95
2017-11-14T21:18:24.740Z,74.08
2017-11-14T21:20:58.934Z,74.14
2017-11-14T21:23:31.256Z,74.28
2017-11-14T21:26:04.925Z,74.45
2017-11-14T21:28:36.657Z,74.32
2017-11-14T21:31:08.413Z,74.28
2017-11-14T21:33:40.077Z,74.38
2017-11-14T21:36:13.350Z,74.39
2017-11-14T21:38:44.856Z,74.56
2017-11-14T21:41:17.001Z,74.70
2017-11-14T21:43:48.496Z,74.74
2017-11-14T21:46:19.824Z,74.81
2017-11-14T21:48:51.487Z,74.81
2017-11-14T21:51:23.107Z,74.98
2017-11-14T21:53:54.610Z,74.93
2017-11-14T21:56:27.005Z,74.82
2017-11-14T21:58:58.765Z,74.71
2017-11-14T22:01:33.935Z,74.58
2017-11-14T22:04:10.812Z,74.52
2017-11-14T22:06:46.403Z,74.49
2017-11-14T22:09:19.534Z,74.47
2017-11-14T22:11:55.953Z,74.62
2017-11-14T22:14:35.462Z,74.59
2017-11-14T22:17:07.487Z,74.67
2017-11-14T22:19:39.166Z,74.70
2017-11-14T22:22:13.002Z,74.60
2017-11-14T22:25:04.010Z,74.66
2017-11-14T22:27:38.066Z,74.69
2017-11-14T22:33:15.343Z,74.71
2017-11-14T22:35:47.661Z,74.75
2017-11-14T22:38:19.111Z,74.68
2017-11-14T22:40:50.990Z,74.66
2017-11-14T22:43:22.807Z,74.84
2017-11-14T22:45:55.945Z,74.77
2017-11-14T22:48:32.269Z,74.84
2017-11-14T22:51:04.910Z,74.90
2017-11-14T22:53:36.730Z,75.04
2017-11-14T22:56:08.424Z,75.16
2017-11-14T22:58:39.847Z,75.33
2017-11-14T23:01:13.033Z,75.33
2017-11-14T23:03:44.481Z,75.36
2017-11-14T23:06:15.776Z,75.49
2017-11-14T23:08:47.495Z,75.67
2017-11-14T23:11:19.118Z,76.19
2017-11-14T23:13:52.768Z,76.26
2017-11-14T23:16:24.050Z,76.63
2017-11-14T23:18:55.657Z,77.09
2017-11-14T23:21:27.891Z,77.53
2017-11-14T23:23:59.185Z,77.48
2017-11-14T23:26:33.736Z,77.52
2017-11-14T23:29:06.461Z,77.78
2017-11-14T23:31:38.244Z,77.90
2017-11-14T23:34:09.764Z,78.09
2017-11-14T23:36:41.168Z,78.06
2017-11-14T23:39:12.986Z,78.24
2017-11-14T23:41:44.467Z,78.53
2017-11-14T23:44:16.361Z,78.87
2017-11-14T23:46:47.744Z,79.12
2017-11-14T23:49:19.033Z,79.27
2017-11-14T23:51:50.625Z,79.27
2017-11-14T23:54:21.998Z,79.38
2017-11-14T23:56:55.428Z,79.49
2017-11-14T23:59:31.094Z,79.47
